createdAt,value
2023-01-22T00:03:08.748Z,1020.578
2023-01-22T00:23:07.759Z,1020.495
2023-01-22T00:43:07.721Z,1020.404
2023-01-22T01:03:08.450Z,1020.297
2023-01-22T01:23:07.305Z,1020.159
2023-01-22T01:43:07.118Z,1020.033
2023-01-22T02:03:08.953Z,1019.96
2023-01-22T02:23:07.909Z,1020.063
2023-01-22T02:43:07.823Z,1020.001
2023-01-22T03:03:08.801Z,1020.036
2023-01-22T03:23:07.540Z,1019.816
2023-01-22T03:43:07.339Z,1019.774
2023-01-22T04:03:08.405Z,1019.827
2023-01-22T04:23:07.466Z,1019.885
2023-01-22T04:43:07.462Z,1020.011
2023-01-22T05:03:08.291Z,1019.977
2023-01-22T05:23:08.234Z,1019.959
2023-01-22T05:43:07.432Z,1019.99
2023-01-22T06:03:08.510Z,1019.945
2023-01-22T06:23:07.613Z,1019.933
2023-01-22T06:43:10.940Z,1020.036
2023-01-22T07:03:08.902Z,1020.276
2023-01-22T07:23:07.757Z,1020.46
2023-01-22T07:43:07.578Z,1020.613
2023-01-22T08:03:08.426Z,1020.744
2023-01-22T08:23:07.187Z,1020.822
2023-01-22T08:43:08.141Z,1020.966
2023-01-22T09:03:08.788Z,1021.077
2023-01-22T09:23:07.782Z,1020.947
2023-01-22T09:43:07.845Z,1021.115
2023-01-22T10:03:08.648Z,1021.174
2023-01-22T10:23:07.505Z,1021.09
2023-01-22T10:43:07.424Z,1021.096
2023-01-22T11:03:08.460Z,1021.045
2023-01-22T11:23:07.357Z,1021.019
2023-01-22T11:43:09.691Z,1020.996
2023-01-22T12:03:08.601Z,1021.016
2023-01-22T12:23:07.675Z,1020.947
2023-01-22T12:43:07.609Z,1020.956
2023-01-22T13:03:08.447Z,1021.014
2023-01-22T13:23:07.479Z,1021.113
2023-01-22T13:43:07.463Z,1021.136
2023-01-22T14:03:08.404Z,1021.308
2023-01-22T14:23:07.453Z,1021.485
2023-01-22T14:43:07.395Z,1021.611
2023-01-22T15:03:08.239Z,1021.844
2023-01-22T15:23:07.141Z,1021.927
2023-01-22T15:43:08.179Z,1022.117
2023-01-22T16:03:08.955Z,1022.215
2023-01-22T16:23:07.895Z,1022.2
2023-01-22T16:43:08.045Z,1022.254
2023-01-22T17:03:09.081Z,1022.318
2023-01-22T17:23:08.176Z,1022.387
2023-01-22T17:43:07.332Z,1022.47
2023-01-22T18:03:08.431Z,1022.662
2023-01-22T18:23:07.342Z,1022.851
2023-01-22T18:43:07.547Z,1023.016
2023-01-22T19:03:08.716Z,1023.172
2023-01-22T19:23:07.721Z,1023.267
2023-01-22T19:43:07.792Z,1023.519
2023-01-22T20:03:08.853Z,1023.589
2023-01-22T20:23:07.775Z,1023.787
2023-01-22T20:43:07.996Z,1023.86
2023-01-22T21:03:09.103Z,1024.002
2023-01-22T21:23:08.073Z,1024.009
2023-01-22T21:43:08.185Z,1023.996
2023-01-22T22:03:09.350Z,1023.964
2023-01-22T22:23:07.307Z,1023.9
2023-01-22T22:43:07.334Z,1024.022
2023-01-22T23:03:08.843Z,1024.156
2023-01-22T23:23:07.704Z,1024.226
2023-01-22T23:43:07.508Z,1024.509
